Flight Track Log - Related Links

Times and Time Zones

All times are in EDT time to prevent confusion due to time zone crossing. See the AAL2345 flight status page for this flight to view local times or setup timezone preferences in your user account.

Time Position Orientation Groundspeed Altitude Reporting Facility
EDT Latitude Longitude Course Direction KTS MPH feet Rate Location/Type
Mon 06:44:32 PM 41.9333 -87.9333 194° South 174 200 2,700  Level Chicago TRACON
Mon 06:45:32 PM 41.9000 -87.9833 228° Southwest 234 269 4,200 2,354 Climbing Chicago TRACON
Mon 06:46:00 PM 41.7603 -88.1685 201° Southwest  Level Estimated
Mon 06:46:42 PM 41.8367 -88.0442 216° Southwest 251 289 7,800  Level Chicago Center
Mon 06:47:00 PM 41.6690 -88.1199 158° South  Level FlightAware Approximate
Mon 06:47:44 PM 41.7656 -88.0428 179° South 258 297 10,600  Level Chicago Center
Mon 06:48:00 PM 41.5956 -88.2075 197° South  Level Estimated
Mon 06:48:46 PM 41.6908 -88.0636 192° South 278 320 13,300  Level Chicago Center
Mon 06:49:00 PM 41.5222 -88.2948 194° South  Level Estimated
Mon 06:49:48 PM 41.5975 -88.1017 197° South 293 337 15,400  Level Chicago Center
Mon 06:50:50 PM 41.5039 -88.1389 197° South 352 405 17,200 1,887 Climbing Chicago Center
Mon 06:51:52 PM 41.4100 -88.1775 197° South 367 422 19,300 2,129 Climbing Chicago Center
Mon 06:52:54 PM 41.2917 -88.2283 198° South 381 438 21,600 1,984 Climbing Chicago Center
Mon 06:53:56 PM 41.1886 -88.2756 199° South 394 453 23,400 1,645 Climbing Chicago Center
Mon 06:54:58 PM 41.0819 -88.3242 199° South 404 465 25,000 1,500 Climbing Chicago Center
Mon 06:56:00 PM 40.9764 -88.3864 204° Southwest 421 484 26,500 1,415 Climbing Chicago Center
Mon 06:57:01 PM 40.8853 -88.4881 220° Southwest 430 495 27,900 1,707 Climbing Chicago Center
Mon 06:58:03 PM 40.7775 -88.6081 220° Southwest 426 490 30,000 1,694 Climbing Chicago Center
Mon 06:59:05 PM 40.6869 -88.7053 219° Southwest 422 486 31,400 968 Climbing Chicago Center
Mon 07:00:07 PM 40.5992 -88.8022 220° Southwest 416 479 32,000 290 Climbing Chicago Center
Mon 07:01:09 PM 40.5064 -88.9028 220° Southwest 414 476 32,000 339 Level Chicago Center
Mon 07:02:11 PM 40.4153 -89.0022 220° Southwest 422 486 32,700 774 Climbing Chicago Center
Mon 07:03:13 PM 40.3242 -89.1011 220° Southwest 421 484 33,600 629 Climbing Chicago Center
Mon 07:04:15 PM 40.2344 -89.1978 219° Southwest 416 479 34,000 195 Climbing Chicago Center
Mon 07:05:16 PM 40.1447 -89.2947 220° Southwest 415 478 34,000  Level Chicago Center
Mon 07:06:18 PM 40.0542 -89.3908 219° Southwest 417 480 34,000  Level Chicago Center
Mon 07:07:20 PM 39.9650 -89.4869 220° Southwest 414 476 34,000  Level Chicago Center
Mon 07:08:22 PM 39.8581 -89.6019 220° Southwest 414 476 34,000  Level Chicago Center
Mon 07:09:17 PM 39.7850 -89.6769 218° Southwest 415 478 34,000  Level Kansas City Center
Mon 07:10:18 PM 39.7011 -89.7658 219° Southwest 412 474 34,000  Level Kansas City Center
Mon 07:11:19 PM 39.5953 -89.8783 219° Southwest 410 472 34,000  Level Kansas City Center
Mon 07:12:23 PM 39.5081 -89.9711 219° Southwest 408 470 34,000  Level Kansas City Center
Mon 07:13:24 PM 39.4197 -90.0631 219° Southwest 408 470 34,000  Level Kansas City Center
Mon 07:14:24 PM 39.3325 -90.1542 219° Southwest 406 467 34,000  Level Kansas City Center
Mon 07:15:28 PM 39.2453 -90.2458 219° Southwest 406 467 34,000  Level Kansas City Center
Mon 07:16:29 PM 39.1572 -90.3367 219° Southwest 407 468 34,000  Level Kansas City Center
Mon 07:17:30 PM 39.0517 -90.4458 219° Southwest 408 470 34,000  Level Kansas City Center
Mon 07:18:32 PM 38.9647 -90.5358 219° Southwest 407 468 34,000  Level Kansas City Center
Mon 07:19:33 PM 38.8789 -90.6231 218° Southwest 392 451 34,000  Level Kansas City Center
Mon 07:20:36 PM 38.7906 -90.7122 218° Southwest 407 468 34,000  Level Kansas City Center
Mon 07:21:38 PM 38.7031 -90.8017 219° Southwest 412 474 34,000  Level Kansas City Center
Mon 07:22:39 PM 38.6175 -90.8883 218° Southwest 400 460 34,000  Level Kansas City Center
Mon 07:23:40 PM 38.5142 -90.9947 219° Southwest 400 460 34,000  Level Kansas City Center
Mon 07:24:41 PM 38.4278 -91.0800 218° Southwest 396 456 34,000  Level Kansas City Center
Mon 07:25:45 PM 38.3422 -91.1650 218° Southwest 394 453 34,000  Level Kansas City Center
Mon 07:26:46 PM 38.2558 -91.2500 218° Southwest 395 455 34,000  Level Kansas City Center
Mon 07:27:47 PM 38.1617 -91.3442 218° Southwest 394 453 34,000  Level Kansas City Center
Mon 07:28:51 PM 38.0742 -91.4314 218° Southwest 396 456 34,000  Level Kansas City Center
Mon 07:29:52 PM 37.9867 -91.5169 218° Southwest 394 453 34,000  Level Kansas City Center
Mon 07:30:53 PM 37.8992 -91.6036 218° Southwest 395 455 34,000  Level Kansas City Center
Mon 07:31:54 PM 37.8128 -91.6917 219° Southwest 395 455 34,000  Level Kansas City Center
Mon 07:32:56 PM 37.7244 -91.7792 218° Southwest 398 458 34,000  Level Kansas City Center
Mon 07:33:58 PM 37.6361 -91.8658 218° Southwest 398 458 34,000  Level Kansas City Center
Mon 07:34:58 PM 37.5308 -91.9708 218° Southwest 398 458 34,000  Level Kansas City Center
Mon 07:36:00 PM 37.4456 -92.0608 220° Southwest 397 457 34,000  Level Kansas City Center
Mon 07:37:02 PM 37.3614 -92.1553 222° Southwest 399 459 34,000  Level Kansas City Center
Mon 07:38:05 PM 37.2772 -92.2481 221° Southwest 400 460 34,000  Level Kansas City Center
Mon 07:39:05 PM 37.1944 -92.3422 222° Southwest 399 459 34,000  Level Kansas City Center
Mon 07:40:09 PM 37.1108 -92.4350 222° Southwest 399 459 34,000  Level Kansas City Center
Mon 07:41:09 PM 37.0272 -92.5269 221° Southwest 398 458 34,000  Level Kansas City Center
Mon 07:42:10 PM 36.9433 -92.6192 221° Southwest 397 457 34,000  Level Kansas City Center
Mon 07:43:10 PM 36.8575 -92.7139 221° Southwest 399 459 34,000  Level Memphis Center
Mon 07:44:10 PM 36.7747 -92.8022 221° Southwest 399 459 34,000  Level Memphis Center
Mon 07:45:10 PM 36.6936 -92.8956 223° Southwest 399 459 34,000  Level Memphis Center
Mon 07:46:10 PM 36.6083 -92.9858 220° Southwest 399 459 34,000  Level Memphis Center
Mon 07:47:10 PM 36.5231 -93.0761 220° Southwest 399 459 34,000  Level Memphis Center
Mon 07:48:10 PM 36.4314 -93.1736 221° Southwest 394 453 34,000  Level Memphis Center
Mon 07:49:10 PM 36.3458 -93.2658 221° Southwest 400 460 34,000  Level Memphis Center
Mon 07:50:10 PM 36.2603 -93.3556 220° Southwest 405 466 34,000  Level Memphis Center
Mon 07:51:10 PM 36.1747 -93.4475 221° Southwest 405 466 34,000  Level Memphis Center
Mon 07:52:10 PM 36.0869 -93.5392 220° Southwest 410 472 34,000  Level Memphis Center
Mon 07:53:10 PM 36.0097 -93.6208 221° Southwest 415 478 34,000  Level Memphis Center
Mon 07:54:10 PM 35.9217 -93.7122 220° Southwest 415 478 34,000  Level Memphis Center
Mon 07:55:10 PM 35.8358 -93.8036 221° Southwest 415 478 34,000  Level Memphis Center
Mon 07:56:10 PM 35.7500 -93.8947 221° Southwest 410 472 34,000  Level Memphis Center
Mon 07:57:10 PM 35.6617 -93.9853 220° Southwest 410 472 34,000  Level Memphis Center
Mon 07:58:10 PM 35.5736 -94.0733 219° Southwest 410 472 34,000  Level Memphis Center
Mon 07:59:10 PM 35.4875 -94.1639 221° Southwest 410 472 34,000  Level Memphis Center
Mon 08:00:10 PM 35.4033 -94.2544 221° Southwest 410 472 34,000  Level Memphis Center
Mon 08:01:10 PM 35.3169 -94.3444 220° Southwest 410 472 34,000  Level Memphis Center
Mon 08:02:10 PM 35.2328 -94.4394 223° Southwest 410 472 34,000  Level Memphis Center
Mon 08:03:10 PM 35.1503 -94.5294 222° Southwest 410 472 34,000  Level Memphis Center
Mon 08:03:31 PM 35.1133 -94.5683 221° Southwest 411 473 34,000  Level Fort Worth Center
Mon 08:04:31 PM 35.0297 -94.6575 221° Southwest 411 473 34,000  Level Fort Worth Center
Mon 08:05:31 PM 34.9442 -94.7514 222° Southwest 411 473 34,000  Level Fort Worth Center
Mon 08:06:31 PM 34.8647 -94.8400 222° Southwest 421 484 34,000 -200 Level Fort Worth Center
Mon 08:07:31 PM 34.7808 -94.9283 221° Southwest 421 484 33,600 -800 Descending Fort Worth Center
Mon 08:08:31 PM 34.6972 -95.0192 222° Southwest 410 472 32,400 -1,200 Descending Fort Worth Center
Mon 08:09:31 PM 34.6092 -95.1100 220° Southwest 410 472 31,200 -1,200 Descending Fort Worth Center
Mon 08:10:31 PM 34.5253 -95.2006 222° Southwest 415 478 30,000 -1,200 Descending Fort Worth Center
Mon 08:11:31 PM 34.4350 -95.2958 221° Southwest 420 483 28,800 -1,200 Descending Fort Worth Center
Mon 08:12:31 PM 34.3531 -95.3836 221° Southwest 420 483 27,600 -1,150 Descending Fort Worth Center
Mon 08:13:31 PM 34.2689 -95.4708 221° Southwest 415 478 26,500 -1,200 Descending Fort Worth Center
Mon 08:14:31 PM 34.1806 -95.5608 220° Southwest 415 478 25,200 -1,300 Descending Fort Worth Center
Mon 08:15:31 PM 34.0942 -95.6528 221° Southwest 420 483 23,900 -1,650 Descending Fort Worth Center
Mon 08:16:31 PM 34.0142 -95.7397 222° Southwest 403 464 21,900 -2,000 Descending Fort Worth Center
Mon 08:17:31 PM 33.9317 -95.8264 221° Southwest 398 458 19,900 -2,000 Descending Fort Worth Center
Mon 08:18:31 PM 33.8514 -95.9078 220° Southwest 398 458 17,900 -1,900 Descending Fort Worth Center
Mon 08:19:31 PM 33.7708 -95.9892 220° Southwest 392 451 16,100 -1,900 Descending Fort Worth Center
Mon 08:20:31 PM 33.6842 -96.0806 221° Southwest 382 440 14,100 -1,750 Descending Fort Worth Center
Mon 08:21:31 PM 33.6203 -96.1489 222° Southwest 369 425 12,600 -1,350 Descending Fort Worth Center
Mon 08:22:31 PM 33.5417 -96.2297 221° Southwest 349 402 11,400 -800 Descending Fort Worth Center
Mon 08:23:31 PM 33.4900 -96.2925 225° Southwest 318 366 11,000 -250 Descending Fort Worth Center
Mon 08:24:31 PM 33.4281 -96.3656 225° Southwest 298 343 10,900 -100 Descending Fort Worth Center
Mon 08:25:31 PM 33.3806 -96.4258 227° Southwest 279 321 10,800 -800 Descending Fort Worth Center
Mon 08:26:31 PM 33.3228 -96.4936 224° Southwest 279 321 9,300 -1,450 Descending Fort Worth Center
Mon 08:27:31 PM 33.2750 -96.5489 224° Southwest 272 313 7,900 -1,400 Descending Fort Worth Center
Mon 08:28:31 PM 33.2253 -96.6089 225° Southwest 272 313 6,500 -1,400 Descending Fort Worth Center
Mon 08:29:31 PM 33.1797 -96.6789 232° Southwest 256 295 5,100 -750 Descending Fort Worth Center
Mon 08:30:31 PM 33.1614 -96.7483 253° West 250 288 5,000 -50 Descending Fort Worth Center
Mon 08:31:31 PM 33.1411 -96.8378 255° West 245 282 5,000 -600 Level Fort Worth Center
Mon 08:32:31 PM 33.0994 -96.9025 232° Southwest 245 282 3,800 -1,050 Descending Fort Worth Center
Mon 08:33:31 PM 33.0664 -96.9647 238° Southwest 252 290 2,900 -400 Descending Fort Worth Center
Mon 08:34:31 PM 33.0206 -97.0094 219° Southwest 211 243 3,000 100 Climbing Fort Worth Center

Login

Don't have an account? Register now (free) for customized features, flight alerts, and more!